Time;durP1;ratioP1;P1;durP2;ratioP2;P2;SDS_P1;SDS_P2;PMS_P1;PMS_P2;Temp;Humidity;BMP_temperature;BMP_pressure;BME280_temperature;BME280_humidity;BME280_pressure;Samples;Min_cycle;Max_cycle;Signal;HPM_P1;HPM_P2
2022/07/19 00:01:48;;;;;;;;;;;13.30;99.90;;;;;;5123494;27;19926;-54
2022/07/19 00:04:28;;;;;;;;;;;13.20;99.90;;;;;;5125696;27;19911;-54
2022/07/19 00:07:08;;;;;;;;;;;13.20;99.90;;;;;;5104261;27;19912;-54
2022/07/19 00:09:48;;;;;;;;;;;13.20;99.90;;;;;;5126000;27;19912;-54
2022/07/19 00:12:27;;;;;;;;;;;13.20;99.90;;;;;;5124989;27;20388;-54
2022/07/19 00:15:09;;;;;;;;;;;13.20;99.90;;;;;;5105299;27;19916;-54
2022/07/19 00:17:49;;;;;;;;;;;13.20;99.90;;;;;;5124682;27;19931;-54
2022/07/19 00:20:28;;;;;;;;;;;13.20;99.90;;;;;;5125605;27;20373;-53
2022/07/19 00:23:08;;;;;;;;;;;13.10;99.90;;;;;;5125445;27;19911;-53
2022/07/19 00:25:48;;;;;;;;;;;13.00;99.90;;;;;;5124732;27;19915;-54
2022/07/19 00:28:28;;;;;;;;;;;12.90;99.90;;;;;;5125759;27;19915;-55
2022/07/19 00:31:08;;;;;;;;;;;12.90;99.90;;;;;;5125405;27;20112;-54
2022/07/19 00:33:48;;;;;;;;;;;12.90;99.90;;;;;;5125520;27;19912;-55
2022/07/19 00:36:27;;;;;;;;;;;12.90;99.90;;;;;;5104018;27;19926;-54
2022/07/19 00:39:07;;;;;;;;;;;12.80;99.90;;;;;;5187903;27;19911;-54
2022/07/19 00:41:47;;;;;;;;;;;12.70;99.90;;;;;;5084944;28;19920;-54
2022/07/19 00:44:27;;;;;;;;;;;12.60;99.90;;;;;;5125922;27;19916;-54
2022/07/19 00:47:07;;;;;;;;;;;12.60;99.90;;;;;;5104269;27;20375;-55
2022/07/19 00:49:47;;;;;;;;;;;12.50;99.90;;;;;;5124636;27;20396;-54
2022/07/19 00:52:29;;;;;;;;;;;12.60;99.90;;;;;;5105299;27;19926;-53
2022/07/19 00:55:10;;;;;;;;;;;12.70;99.90;;;;;;5105235;27;20462;-55
2022/07/19 00:57:51;;;;;;;;;;;12.60;99.90;;;;;;5124930;27;19912;-53
2022/07/19 01:00:32;;;;;;;;;;;12.60;99.90;;;;;;5125714;27;19915;-53
2022/07/19 01:03:13;;;;;;;;;;;12.50;99.90;;;;;;5111948;27;19919;-54
2022/07/19 01:05:53;;;;;;;;;;;12.50;99.90;;;;;;5124610;27;20316;-54
2022/07/19 01:08:34;;;;;;;;;;;12.40;99.90;;;;;;5105023;27;19919;-54
2022/07/19 01:11:13;;;;;;;;;;;12.30;99.90;;;;;;5105101;27;19918;-53
2022/07/19 01:13:53;;;;;;;;;;;12.30;99.90;;;;;;5125993;27;19918;-53
2022/07/19 01:16:33;;;;;;;;;;;12.20;99.90;;;;;;5124659;27;19915;-53
2022/07/19 01:19:13;;;;;;;;;;;12.10;99.90;;;;;;5105274;27;20438;-54
2022/07/19 01:21:53;;;;;;;;;;;12.10;99.90;;;;;;5105197;27;20431;-53
2022/07/19 01:24:32;;;;;;;;;;;12.10;99.90;;;;;;5084844;28;19912;-53
2022/07/19 01:27:12;;;;;;;;;;;12.00;99.90;;;;;;5104193;27;19916;-54
2022/07/19 01:29:52;;;;;;;;;;;12.00;99.90;;;;;;5125804;27;19916;-53
2022/07/19 01:32:32;;;;;;;;;;;12.00;99.90;;;;;;5115361;27;19957;-53
2022/07/19 01:35:12;;;;;;;;;;;11.90;99.90;;;;;;5084063;28;19916;-55
2022/07/19 01:37:51;;;;;;;;;;;11.80;99.90;;;;;;5124608;27;19912;-54
2022/07/19 01:40:33;;;;;;;;;;;11.70;99.90;;;;;;5125427;27;20288;-53
2022/07/19 01:43:13;;;;;;;;;;;11.70;99.90;;;;;;5125795;27;19916;-55
2022/07/19 01:45:53;;;;;;;;;;;11.70;99.90;;;;;;5104295;27;19930;-55
2022/07/19 01:48:34;;;;;;;;;;;11.70;99.90;;;;;;5104598;27;19918;-53
2022/07/19 01:51:14;;;;;;;;;;;11.70;99.90;;;;;;5123929;27;20165;-54
2022/07/19 01:53:54;;;;;;;;;;;11.60;99.90;;;;;;5104885;27;19969;-54
2022/07/19 01:56:33;;;;;;;;;;;11.50;99.90;;;;;;5124604;27;20407;-54
2022/07/19 01:59:13;;;;;;;;;;;11.40;99.90;;;;;;5125833;27;19922;-55
2022/07/19 02:01:53;;;;;;;;;;;11.40;99.90;;;;;;5122961;27;19920;-55
2022/07/19 02:04:33;;;;;;;;;;;11.40;99.90;;;;;;5104478;27;19918;-54
2022/07/19 02:07:13;;;;;;;;;;;11.40;99.90;;;;;;5104041;27;19912;-53
2022/07/19 02:09:53;;;;;;;;;;;11.30;99.90;;;;;;5105117;27;19926;-53
2022/07/19 02:12:32;;;;;;;;;;;11.30;99.90;;;;;;5096229;27;19927;-54
2022/07/19 02:15:12;;;;;;;;;;;11.30;99.90;;;;;;5105186;27;19946;-55
2022/07/19 02:17:52;;;;;;;;;;;11.30;99.90;;;;;;5124971;27;19926;-54
2022/07/19 02:20:32;;;;;;;;;;;11.40;99.90;;;;;;5126002;27;19912;-55
2022/07/19 02:23:12;;;;;;;;;;;11.40;99.90;;;;;;5111795;27;20282;-54
2022/07/19 02:25:52;;;;;;;;;;;11.30;99.90;;;;;;5125057;27;19912;-56
2022/07/19 02:28:31;;;;;;;;;;;11.20;99.90;;;;;;5125011;27;19922;-53
2022/07/19 02:31:11;;;;;;;;;;;11.20;99.90;;;;;;5105005;27;19946;-53
2022/07/19 02:33:51;;;;;;;;;;;11.20;99.90;;;;;;5124243;27;19912;-54
2022/07/19 02:36:31;;;;;;;;;;;11.20;99.90;;;;;;5124505;27;20133;-54
2022/07/19 02:39:11;;;;;;;;;;;11.30;99.90;;;;;;5125502;27;20376;-52
2022/07/19 02:41:51;;;;;;;;;;;11.30;99.90;;;;;;5103056;27;19926;-53
2022/07/19 02:44:30;;;;;;;;;;;11.30;99.90;;;;;;5104562;27;19916;-56
2022/07/19 02:47:10;;;;;;;;;;;11.20;99.90;;;;;;5124176;27;19912;-54
2022/07/19 02:49:50;;;;;;;;;;;11.10;99.90;;;;;;5123344;27;19916;-55
2022/07/19 02:52:31;;;;;;;;;;;11.10;99.90;;;;;;5117424;27;20377;-53
2022/07/19 02:55:11;;;;;;;;;;;11.10;99.90;;;;;;5125138;27;19916;-54
2022/07/19 02:57:51;;;;;;;;;;;11.10;99.90;;;;;;5104091;27;19973;-53
2022/07/19 03:00:31;;;;;;;;;;;11.00;99.90;;;;;;5125521;27;20316;-55
2022/07/19 03:06:09;;;;;;;;;;;11.00;99.90;;;;;;5124605;27;19912;-53
2022/07/19 03:08:50;;;;;;;;;;;11.00;99.90;;;;;;5125374;27;20273;-53
2022/07/19 03:11:29;;;;;;;;;;;11.00;99.90;;;;;;5104270;27;20396;-55
2022/07/19 03:14:09;;;;;;;;;;;11.00;99.90;;;;;;5104688;27;19912;-53
2022/07/19 03:16:49;;;;;;;;;;;11.00;99.90;;;;;;5124974;27;19911;-52
2022/07/19 03:19:29;;;;;;;;;;;11.00;99.90;;;;;;5125053;27;19912;-52
2022/07/19 03:22:09;;;;;;;;;;;10.90;99.90;;;;;;5125680;27;19914;-54
2022/07/19 03:24:49;;;;;;;;;;;11.00;99.90;;;;;;5125648;27;20114;-53
2022/07/19 03:27:28;;;;;;;;;;;10.90;99.90;;;;;;5103752;27;19930;-56
2022/07/19 03:30:09;;;;;;;;;;;10.90;99.90;;;;;;5125619;27;19920;-53
2022/07/19 03:32:50;;;;;;;;;;;11.00;99.90;;;;;;5120864;27;20393;-56
2022/07/19 03:35:30;;;;;;;;;;;11.10;99.90;;;;;;5104441;27;19930;-54
2022/07/19 03:38:09;;;;;;;;;;;11.10;99.90;;;;;;5124363;27;19916;-56
2022/07/19 03:40:49;;;;;;;;;;;11.00;99.90;;;;;;5125975;27;19922;-55
2022/07/19 03:43:29;;;;;;;;;;;11.10;99.90;;;;;;5125642;27;19922;-52
2022/07/19 03:46:09;;;;;;;;;;;11.10;99.90;;;;;;5124613;27;19934;-52
2022/07/19 03:48:49;;;;;;;;;;;11.10;99.90;;;;;;5107556;27;19926;-53
2022/07/19 03:51:28;;;;;;;;;;;11.10;99.90;;;;;;5123553;27;19912;-55
2022/07/19 03:54:08;;;;;;;;;;;11.20;99.90;;;;;;5105306;27;19927;-56
2022/07/19 03:56:48;;;;;;;;;;;11.20;99.90;;;;;;5125035;27;20183;-53
2022/07/19 03:59:28;;;;;;;;;;;11.30;99.90;;;;;;5125753;27;19912;-53
2022/07/19 04:02:08;;;;;;;;;;;11.50;99.90;;;;;;5121036;27;20373;-53
2022/07/19 04:04:48;;;;;;;;;;;11.60;99.90;;;;;;5125011;27;19926;-53
2022/07/19 04:07:28;;;;;;;;;;;11.70;99.90;;;;;;5104159;27;19916;-51
2022/07/19 04:10:08;;;;;;;;;;;11.80;99.90;;;;;;5105277;27;19913;-53
2022/07/19 04:12:49;;;;;;;;;;;11.90;99.90;;;;;;5105064;27;20420;-53
2022/07/19 04:15:29;;;;;;;;;;;12.00;99.90;;;;;;5125407;27;19911;-53
2022/07/19 04:18:08;;;;;;;;;;;12.10;99.90;;;;;;5125125;27;19911;-53
2022/07/19 04:20:48;;;;;;;;;;;12.20;99.90;;;;;;5125873;27;20337;-52
2022/07/19 04:23:28;;;;;;;;;;;12.50;99.90;;;;;;5109644;27;19912;-54
2022/07/19 04:26:08;;;;;;;;;;;12.70;99.90;;;;;;5125031;27;20288;-51
2022/07/19 04:28:48;;;;;;;;;;;13.40;99.90;;;;;;5125576;27;19926;-53
2022/07/19 04:31:27;;;;;;;;;;;14.70;99.90;;;;;;5124522;27;19929;-54
2022/07/19 04:34:07;;;;;;;;;;;15.70;99.90;;;;;;5105758;27;19950;-52
2022/07/19 04:36:47;;;;;;;;;;;16.00;99.90;;;;;;5125082;27;19912;-51
2022/07/19 04:39:27;;;;;;;;;;;16.50;99.90;;;;;;5125290;27;20270;-53
2022/07/19 04:42:07;;;;;;;;;;;17.20;99.90;;;;;;5120896;27;19916;-51
2022/07/19 04:44:47;;;;;;;;;;;17.00;99.90;;;;;;5084753;28;19916;-51
2022/07/19 04:47:26;;;;;;;;;;;16.70;99.90;;;;;;5128834;27;19915;-53
2022/07/19 04:50:07;;;;;;;;;;;16.50;99.90;;;;;;5105684;27;19918;-53
2022/07/19 04:52:48;;;;;;;;;;;16.60;99.90;;;;;;5145982;27;19912;-53
2022/07/19 04:55:28;;;;;;;;;;;17.70;99.90;;;;;;5125293;27;19912;-52
2022/07/19 04:58:07;;;;;;;;;;;18.90;99.90;;;;;;5125010;27;19918;-52
2022/07/19 05:00:47;;;;;;;;;;;20.00;99.90;;;;;;5146421;27;19921;-52
2022/07/19 05:03:27;;;;;;;;;;;20.80;99.90;;;;;;5108922;27;20373;-52
2022/07/19 05:06:07;;;;;;;;;;;21.40;99.90;;;;;;5104518;27;19912;-54
2022/07/19 05:08:47;;;;;;;;;;;21.90;99.60;;;;;;5104786;27;19916;-54
2022/07/19 05:11:26;;;;;;;;;;;22.20;92.40;;;;;;5125721;27;19912;-53
2022/07/19 05:14:06;;;;;;;;;;;22.50;89.90;;;;;;5125961;27;19912;-51
2022/07/19 05:16:46;;;;;;;;;;;22.60;83.90;;;;;;5104441;27;20435;-51
2022/07/19 05:19:26;;;;;;;;;;;22.70;79.50;;;;;;5125363;27;19912;-51
2022/07/19 05:22:06;;;;;;;;;;;22.40;79.20;;;;;;5126067;27;19918;-51
2022/07/19 05:24:46;;;;;;;;;;;22.70;79.20;;;;;;5125736;27;19943;-55
2022/07/19 05:27:25;;;;;;;;;;;22.90;77.90;;;;;;5124579;27;19916;-56
2022/07/19 05:30:06;;;;;;;;;;;23.00;74.40;;;;;;5123678;27;19915;-55
2022/07/19 05:32:47;;;;;;;;;;;23.20;72.50;;;;;;5124677;27;19926;-52
2022/07/19 05:35:27;;;;;;;;;;;23.50;70.80;;;;;;5124450;27;19912;-54
2022/07/19 05:38:06;;;;;;;;;;;23.40;70.20;;;;;;5123999;27;19916;-54
2022/07/19 05:40:47;;;;;;;;;;;22.40;73.80;;;;;;5124530;27;19928;-55
2022/07/19 05:43:28;;;;;;;;;;;21.40;85.30;;;;;;5108782;27;19912;-54
2022/07/19 05:46:08;;;;;;;;;;;20.70;98.00;;;;;;5124187;27;19918;-52
2022/07/19 05:48:47;;;;;;;;;;;20.40;99.90;;;;;;5140515;27;19916;-51
2022/07/19 05:51:27;;;;;;;;;;;20.00;99.90;;;;;;5125065;27;20438;-51
2022/07/19 05:54:07;;;;;;;;;;;19.70;99.90;;;;;;5124800;27;19929;-54
2022/07/19 05:56:47;;;;;;;;;;;19.60;99.90;;;;;;5123724;27;19920;-53
2022/07/19 05:59:27;;;;;;;;;;;19.60;99.90;;;;;;5123663;27;19912;-53
2022/07/19 06:02:07;;;;;;;;;;;19.80;99.90;;;;;;5120025;27;19912;-51
2022/07/19 06:04:48;;;;;;;;;;;20.00;99.90;;;;;;5124649;27;19916;-54
2022/07/19 06:07:28;;;;;;;;;;;20.20;99.90;;;;;;5124917;27;19929;-55
2022/07/19 06:10:08;;;;;;;;;;;20.40;99.90;;;;;;5125713;27;20163;-53
2022/07/19 06:12:49;;;;;;;;;;;20.50;99.90;;;;;;5115060;27;19912;-52
2022/07/19 06:15:29;;;;;;;;;;;20.70;99.90;;;;;;5125464;27;19916;-53
2022/07/19 06:18:09;;;;;;;;;;;20.90;99.90;;;;;;5125380;27;19915;-55
2022/07/19 06:20:48;;;;;;;;;;;21.00;99.90;;;;;;5105379;27;20328;-55
2022/07/19 06:23:29;;;;;;;;;;;21.20;99.90;;;;;;5164154;27;20273;-51
2022/07/19 06:26:09;;;;;;;;;;;21.30;99.90;;;;;;5124783;27;20316;-53
2022/07/19 06:28:49;;;;;;;;;;;21.50;99.90;;;;;;5125972;27;19915;-53
2022/07/19 06:31:29;;;;;;;;;;;21.50;99.90;;;;;;5123580;27;19915;-53
2022/07/19 06:34:09;;;;;;;;;;;21.60;98.40;;;;;;5104919;27;19930;-55
2022/07/19 06:36:49;;;;;;;;;;;21.80;90.70;;;;;;5124616;27;19911;-54
2022/07/19 06:39:29;;;;;;;;;;;21.90;90.80;;;;;;5125270;27;19911;-52
2022/07/19 06:42:09;;;;;;;;;;;22.10;93.30;;;;;;5105185;27;19954;-54
2022/07/19 06:44:49;;;;;;;;;;;22.20;91.10;;;;;;5125887;27;19911;-53
2022/07/19 06:47:28;;;;;;;;;;;22.30;83.10;;;;;;5124554;27;19998;-52
2022/07/19 06:50:09;;;;;;;;;;;22.30;80.40;;;;;;5125754;27;20292;-52
2022/07/19 06:52:50;;;;;;;;;;;22.40;79.90;;;;;;5115294;27;19912;-54
2022/07/19 06:55:29;;;;;;;;;;;22.50;81.80;;;;;;5104729;27;20544;-53
2022/07/19 06:58:09;;;;;;;;;;;22.70;79.30;;;;;;5105076;27;19926;-53
2022/07/19 07:00:51;;;;;;;;;;;22.80;81.60;;;;;;5125795;27;19916;-52
2022/07/19 07:03:32;;;;;;;;;;;22.90;79.70;;;;;;5124537;27;20399;-52
2022/07/19 07:06:12;;;;;;;;;;;23.10;73.80;;;;;;5124740;27;19915;-55
2022/07/19 07:08:52;;;;;;;;;;;23.20;76.10;;;;;;5104961;27;19916;-54
2022/07/19 07:11:32;;;;;;;;;;;23.40;73.70;;;;;;5105480;27;19923;-54
2022/07/19 07:14:11;;;;;;;;;;;23.50;69.60;;;;;;5125989;27;19920;-52
2022/07/19 07:16:51;;;;;;;;;;;23.50;67.90;;;;;;5104710;27;19926;-52
2022/07/19 07:19:31;;;;;;;;;;;23.60;66.70;;;;;;5125290;27;20297;-52
2022/07/19 07:22:11;;;;;;;;;;;23.70;64.90;;;;;;5125631;27;19927;-54
2022/07/19 07:24:51;;;;;;;;;;;23.80;65.90;;;;;;5125838;27;19918;-53
2022/07/19 07:27:31;;;;;;;;;;;24.00;65.00;;;;;;5124291;27;19912;-55
2022/07/19 07:30:11;;;;;;;;;;;24.10;63.00;;;;;;5103283;27;19934;-54
2022/07/19 07:32:52;;;;;;;;;;;24.30;60.60;;;;;;5114537;27;19912;-51
2022/07/19 07:35:32;;;;;;;;;;;24.40;58.70;;;;;;5125864;27;19911;-53
2022/07/19 07:38:11;;;;;;;;;;;24.60;58.00;;;;;;5125417;27;19912;-51
2022/07/19 07:40:51;;;;;;;;;;;24.70;59.50;;;;;;5125808;27;20296;-53
2022/07/19 07:43:31;;;;;;;;;;;24.80;59.90;;;;;;5105207;27;19912;-55
2022/07/19 07:46:11;;;;;;;;;;;25.00;57.40;;;;;;5125070;27;19912;-51
2022/07/19 07:48:51;;;;;;;;;;;25.20;56.90;;;;;;5125494;27;19912;-53
2022/07/19 07:51:31;;;;;;;;;;;25.40;57.20;;;;;;5146582;27;19918;-52
2022/07/19 07:54:10;;;;;;;;;;;25.50;52.80;;;;;;5126139;27;20319;-52
2022/07/19 07:56:50;;;;;;;;;;;25.70;52.80;;;;;;5104175;27;19912;-52
2022/07/19 07:59:30;;;;;;;;;;;25.90;48.40;;;;;;5125292;27;19918;-53
2022/07/19 08:02:10;;;;;;;;;;;26.10;48.60;;;;;;5105221;27;19953;-53
2022/07/19 08:04:50;;;;;;;;;;;26.30;47.70;;;;;;5125472;27;19949;-55
2022/07/19 08:07:30;;;;;;;;;;;26.50;45.80;;;;;;5104939;27;19912;-52
2022/07/19 08:10:10;;;;;;;;;;;26.70;45.50;;;;;;5105479;27;20286;-52
2022/07/19 08:12:51;;;;;;;;;;;26.80;45.70;;;;;;5115944;27;19923;-52
2022/07/19 08:15:31;;;;;;;;;;;27.00;43.70;;;;;;5125645;27;19916;-53
2022/07/19 08:18:10;;;;;;;;;;;27.10;43.20;;;;;;5109176;27;20385;-54
2022/07/19 08:20:50;;;;;;;;;;;27.20;42.70;;;;;;5125971;27;19911;-54
2022/07/19 08:23:30;;;;;;;;;;;27.30;43.60;;;;;;5125385;27;19911;-53
2022/07/19 08:26:10;;;;;;;;;;;27.30;42.60;;;;;;5125009;27;19912;-51
2022/07/19 08:28:50;;;;;;;;;;;27.40;42.00;;;;;;5126148;27;19911;-52
2022/07/19 08:31:30;;;;;;;;;;;27.50;41.60;;;;;;5124493;27;19911;-52
2022/07/19 08:34:09;;;;;;;;;;;27.60;41.30;;;;;;5104925;27;19926;-52
2022/07/19 08:36:49;;;;;;;;;;;27.70;41.30;;;;;;5125228;27;19912;-54
2022/07/19 08:39:29;;;;;;;;;;;27.70;40.30;;;;;;5124723;27;19915;-56
2022/07/19 08:42:09;;;;;;;;;;;27.70;40.90;;;;;;5125841;27;19919;-54
2022/07/19 08:44:51;;;;;;;;;;;27.80;40.90;;;;;;5125742;27;19916;-51
2022/07/19 08:47:31;;;;;;;;;;;28.00;40.50;;;;;;5129236;27;19918;-53
2022/07/19 08:50:12;;;;;;;;;;;28.10;39.80;;;;;;5084754;28;20394;-56
2022/07/19 08:52:52;;;;;;;;;;;28.10;40.30;;;;;;5104932;27;20175;-52
2022/07/19 08:55:31;;;;;;;;;;;28.20;39.40;;;;;;5125270;27;19912;-53
2022/07/19 08:58:11;;;;;;;;;;;28.30;40.10;;;;;;5104946;27;19945;-52
2022/07/19 09:00:51;;;;;;;;;;;28.40;38.70;;;;;;5104897;27;19919;-52
2022/07/19 09:03:31;;;;;;;;;;;28.50;38.60;;;;;;5107504;27;19916;-53
2022/07/19 09:06:11;;;;;;;;;;;28.60;37.60;;;;;;5124511;27;19912;-54
2022/07/19 09:08:51;;;;;;;;;;;28.60;37.40;;;;;;5124051;27;19924;-53
2022/07/19 09:11:37;;;;;;;;;;;28.60;39.90;;;;;;5125627;27;19918;-53
2022/07/19 09:14:17;;;;;;;;;;;28.70;36.50;;;;;;5125660;27;19912;-53
2022/07/19 09:17:01;;;;;;;;;;;28.70;38.90;;;;;;5126040;27;19922;-54
2022/07/19 09:19:42;;;;;;;;;;;28.80;38.60;;;;;;5124909;27;19912;-53
2022/07/19 09:22:23;;;;;;;;;;;28.90;36.70;;;;;;5125165;27;20307;-53
2022/07/19 09:25:04;;;;;;;;;;;28.80;35.80;;;;;;5124904;27;20207;-55
2022/07/19 09:27:57;;;;;;;;;;;28.80;36.00;;;;;;5082854;28;20333;-52
2022/07/19 09:30:39;;;;;;;;;;;28.90;36.00;;;;;;5163397;27;19973;-52
2022/07/19 09:33:20;;;;;;;;;;;28.90;37.00;;;;;;5125312;27;19912;-54
2022/07/19 09:36:01;;;;;;;;;;;29.00;36.00;;;;;;5104013;27;19912;-53
2022/07/19 09:38:43;;;;;;;;;;;29.00;34.90;;;;;;5125514;27;19920;-52
2022/07/19 09:41:24;;;;;;;;;;;29.10;37.00;;;;;;5125560;27;19912;-54
2022/07/19 09:44:05;;;;;;;;;;;29.40;35.90;;;;;;5125535;27;19912;-54
2022/07/19 09:46:46;;;;;;;;;;;29.60;35.40;;;;;;5124353;27;19911;-54
2022/07/19 09:49:26;;;;;;;;;;;29.60;32.40;;;;;;5104830;27;19912;-53
2022/07/19 09:52:08;;;;;;;;;;;29.50;33.30;;;;;;5105014;27;20419;-54
2022/07/19 09:54:51;;;;;;;;;;;29.50;33.70;;;;;;5125494;27;19918;-54
2022/07/19 09:57:34;;;;;;;;;;;29.70;32.90;;;;;;5124472;27;19916;-53
2022/07/19 10:00:16;;;;;;;;;;;29.80;33.30;;;;;;5125720;27;19915;-54
2022/07/19 10:02:57;;;;;;;;;;;30.10;32.30;;;;;;5103530;27;19930;-55
2022/07/19 10:05:39;;;;;;;;;;;30.20;33.70;;;;;;5125214;27;19916;-52
2022/07/19 10:08:19;;;;;;;;;;;30.30;32.80;;;;;;5125812;27;19918;-53
2022/07/19 10:10:59;;;;;;;;;;;30.30;31.10;;;;;;5125354;27;20296;-54
2022/07/19 10:13:40;;;;;;;;;;;30.30;31.00;;;;;;5107833;27;19912;-54
2022/07/19 10:16:23;;;;;;;;;;;30.20;31.10;;;;;;5124830;27;19912;-53
2022/07/19 10:19:06;;;;;;;;;;;30.30;31.70;;;;;;5104713;27;19912;-54
2022/07/19 10:21:46;;;;;;;;;;;30.30;29.30;;;;;;5105494;27;19953;-51
2022/07/19 10:24:46;;;;;;;;;;;30.20;30.10;;;;;;5125966;27;19915;-52
2022/07/19 10:27:40;;;;;;;;;;;30.20;31.70;;;;;;5165960;27;20413;-54
2022/07/19 10:30:24;;;;;;;;;;;30.40;29.80;;;;;;5124010;27;19916;-53
2022/07/19 10:33:24;;;;;;;;;;;30.40;29.70;;;;;;5105027;27;19962;-53
2022/07/19 10:36:37;;;;;;;;;;;30.50;30.40;;;;;;5123999;27;20222;-52
2022/07/19 10:39:37;;;;;;;;;;;30.70;29.90;;;;;;5085088;28;19913;-52
2022/07/19 10:42:19;;;;;;;;;;;30.90;30.60;;;;;;5105175;27;19919;-53
2022/07/19 10:45:12;;;;;;;;;;;30.70;29.40;;;;;;5125783;27;20356;-53
2022/07/19 10:48:03;;;;;;;;;;;30.70;29.10;;;;;;5128873;27;19925;-54
2022/07/19 10:51:00;;;;;;;;;;;30.70;29.00;;;;;;5124798;27;19924;-52
2022/07/19 10:53:53;;;;;;;;;;;30.70;30.00;;;;;;5087297;27;19930;-53
2022/07/19 10:56:36;;;;;;;;;;;30.80;30.00;;;;;;5104220;27;19912;-52
2022/07/19 10:59:16;;;;;;;;;;;31.00;29.20;;;;;;5125229;27;19912;-54
2022/07/19 11:01:56;;;;;;;;;;;30.90;29.10;;;;;;5120436;27;19920;-53
2022/07/19 11:04:37;;;;;;;;;;;30.90;29.40;;;;;;5123985;27;19911;-54
2022/07/19 11:07:18;;;;;;;;;;;30.90;29.80;;;;;;5124575;27;19926;-52
2022/07/19 11:09:59;;;;;;;;;;;31.00;28.30;;;;;;5105275;27;19912;-53
2022/07/19 11:12:40;;;;;;;;;;;31.00;28.80;;;;;;5115635;27;19912;-53
2022/07/19 11:15:21;;;;;;;;;;;31.00;28.80;;;;;;5085048;28;20306;-52
2022/07/19 11:18:01;;;;;;;;;;;31.20;28.20;;;;;;5084357;28;19913;-53
2022/07/19 11:20:43;;;;;;;;;;;31.20;29.40;;;;;;5166685;27;19926;-53
2022/07/19 11:23:24;;;;;;;;;;;31.20;28.60;;;;;;5105518;27;19926;-55
2022/07/19 11:26:08;;;;;;;;;;;31.20;28.30;;;;;;5105031;27;20059;-53
2022/07/19 11:28:48;;;;;;;;;;;31.20;29.30;;;;;;5125615;27;20149;-53
2022/07/19 11:31:28;;;;;;;;;;;31.40;28.50;;;;;;5123587;27;20393;-53
2022/07/19 11:34:11;;;;;;;;;;;31.40;28.10;;;;;;5125885;27;20111;-53
2022/07/19 11:36:58;;;;;;;;;;;31.40;29.30;;;;;;5123407;27;19915;-54
2022/07/19 11:39:48;;;;;;;;;;;31.60;28.70;;;;;;5162995;27;19919;-54
2022/07/19 11:42:36;;;;;;;;;;;31.80;28.50;;;;;;5115724;27;19922;-55
2022/07/19 11:45:17;;;;;;;;;;;31.80;28.90;;;;;;5123007;27;19916;-52
2022/07/19 11:47:58;;;;;;;;;;;31.90;29.30;;;;;;5106639;27;19927;-53
2022/07/19 11:50:40;;;;;;;;;;;31.90;29.60;;;;;;5125019;27;19916;-54
2022/07/19 11:53:21;;;;;;;;;;;31.90;28.30;;;;;;5108723;27;19912;-52
2022/07/19 11:56:02;;;;;;;;;;;31.90;28.90;;;;;;5082706;28;20289;-52
2022/07/19 11:58:43;;;;;;;;;;;32.00;29.30;;;;;;5125539;27;19911;-52
2022/07/19 12:01:26;;;;;;;;;;;32.20;28.10;;;;;;5125689;27;19923;-54
2022/07/19 12:04:07;;;;;;;;;;;32.30;27.90;;;;;;5124543;27;19912;-52
2022/07/19 12:06:48;;;;;;;;;;;32.50;29.10;;;;;;5134835;27;20385;-53
2022/07/19 12:09:32;;;;;;;;;;;32.50;28.70;;;;;;5103756;27;19916;-55
2022/07/19 12:12:16;;;;;;;;;;;32.50;28.40;;;;;;5125546;27;19912;-54
2022/07/19 12:15:08;;;;;;;;;;;32.50;29.00;;;;;;5099659;27;19916;-52
2022/07/19 12:17:56;;;;;;;;;;;32.40;27.90;;;;;;5129558;27;19912;-53
2022/07/19 12:20:37;;;;;;;;;;;32.40;28.10;;;;;;5104828;27;20361;-55
2022/07/19 12:23:18;;;;;;;;;;;32.50;28.10;;;;;;5093002;27;19930;-54
2022/07/19 12:26:04;;;;;;;;;;;32.60;28.60;;;;;;5065157;28;20386;-52
2022/07/19 12:28:44;;;;;;;;;;;32.80;28.40;;;;;;5124741;27;19925;-52
2022/07/19 12:31:24;;;;;;;;;;;32.90;27.60;;;;;;5103415;27;19912;-53
2022/07/19 12:34:04;;;;;;;;;;;32.80;27.50;;;;;;5105035;27;20320;-53
2022/07/19 12:36:44;;;;;;;;;;;32.80;27.70;;;;;;5123147;27;20399;-55
2022/07/19 12:39:25;;;;;;;;;;;32.80;27.30;;;;;;5125291;27;19911;-53
2022/07/19 12:42:07;;;;;;;;;;;32.80;27.40;;;;;;5100403;27;20328;-52
2022/07/19 12:44:49;;;;;;;;;;;32.90;27.80;;;;;;5124410;27;19916;-53
2022/07/19 12:47:30;;;;;;;;;;;33.00;27.30;;;;;;5107991;27;19912;-53
2022/07/19 12:50:18;;;;;;;;;;;33.00;27.60;;;;;;5109748;27;19916;-54
2022/07/19 12:53:00;;;;;;;;;;;33.00;28.10;;;;;;5119302;27;19916;-52
2022/07/19 12:55:43;;;;;;;;;;;33.10;28.60;;;;;;5104445;27;19912;-53
2022/07/19 13:01:17;;;;;;;;;;;33.30;28.10;;;;;;5125864;27;20331;-52
2022/07/19 13:03:57;;;;;;;;;;;33.30;27.30;;;;;;5100119;27;20217;-53
2022/07/19 13:06:37;;;;;;;;;;;33.40;26.70;;;;;;5123820;27;19911;-52
2022/07/19 13:09:18;;;;;;;;;;;33.40;26.70;;;;;;5125324;27;20368;-52
2022/07/19 13:11:58;;;;;;;;;;;33.30;28.00;;;;;;5105182;27;19926;-52
2022/07/19 13:14:38;;;;;;;;;;;33.40;27.80;;;;;;5125290;27;19911;-54
2022/07/19 13:17:18;;;;;;;;;;;33.50;27.10;;;;;;5124127;27;19916;-55
2022/07/19 13:19:58;;;;;;;;;;;33.30;26.80;;;;;;5125369;27;19912;-53
2022/07/19 13:22:38;;;;;;;;;;;33.30;27.20;;;;;;5094875;27;20312;-52
2022/07/19 13:25:19;;;;;;;;;;;33.30;27.40;;;;;;5125881;27;19912;-54
2022/07/19 13:27:59;;;;;;;;;;;33.40;27.10;;;;;;5124717;27;19919;-53
2022/07/19 13:30:39;;;;;;;;;;;33.40;28.20;;;;;;5125406;27;19912;-53
2022/07/19 13:33:19;;;;;;;;;;;33.50;26.60;;;;;;5090385;27;20313;-54
2022/07/19 13:35:58;;;;;;;;;;;33.50;28.30;;;;;;5123916;27;20385;-52
2022/07/19 13:38:40;;;;;;;;;;;33.60;26.90;;;;;;5124772;27;19912;-55
2022/07/19 13:41:21;;;;;;;;;;;33.80;26.40;;;;;;5107997;27;19912;-53
2022/07/19 13:44:02;;;;;;;;;;;33.80;25.80;;;;;;5084282;28;19919;-53
2022/07/19 13:46:42;;;;;;;;;;;33.90;26.00;;;;;;5124381;27;19942;-53
2022/07/19 13:49:22;;;;;;;;;;;34.00;25.60;;;;;;5104572;27;20419;-52
2022/07/19 13:52:02;;;;;;;;;;;33.90;25.40;;;;;;5120554;27;19918;-55
2022/07/19 13:54:42;;;;;;;;;;;33.70;25.10;;;;;;5125583;27;19926;-54
2022/07/19 13:57:22;;;;;;;;;;;33.70;25.30;;;;;;5104064;27;19912;-54
2022/07/19 14:00:03;;;;;;;;;;;33.70;25.10;;;;;;5104501;27;20319;-53
2022/07/19 14:02:51;;;;;;;;;;;33.80;26.40;;;;;;5125539;27;19911;-53
2022/07/19 14:05:31;;;;;;;;;;;33.90;25.10;;;;;;5123709;27;19916;-53
2022/07/19 14:08:11;;;;;;;;;;;34.00;25.40;;;;;;5121105;27;19912;-54
2022/07/19 14:10:51;;;;;;;;;;;34.20;25.30;;;;;;5123867;27;20361;-53
2022/07/19 14:13:31;;;;;;;;;;;34.20;24.70;;;;;;5097453;27;20312;-53
2022/07/19 14:16:10;;;;;;;;;;;34.30;24.90;;;;;;5123943;27;19919;-54
2022/07/19 14:18:50;;;;;;;;;;;34.40;24.30;;;;;;5128576;27;19912;-52
2022/07/19 14:21:33;;;;;;;;;;;34.50;24.70;;;;;;5102721;27;19950;-53
2022/07/19 14:24:13;;;;;;;;;;;34.50;24.50;;;;;;5132349;27;19919;-54
2022/07/19 14:26:53;;;;;;;;;;;34.50;24.70;;;;;;5137844;27;19917;-53
2022/07/19 14:29:32;;;;;;;;;;;34.50;26.40;;;;;;5124230;27;19915;-54
2022/07/19 14:32:12;;;;;;;;;;;34.60;26.00;;;;;;5098686;27;19926;-53
2022/07/19 14:34:52;;;;;;;;;;;34.70;26.30;;;;;;5103826;27;19916;-52
2022/07/19 14:37:32;;;;;;;;;;;34.70;24.30;;;;;;5082873;28;19912;-53
2022/07/19 14:40:12;;;;;;;;;;;34.70;24.40;;;;;;5123951;27;19919;-53
2022/07/19 14:42:53;;;;;;;;;;;34.60;24.00;;;;;;5111460;27;19916;-55
2022/07/19 14:45:33;;;;;;;;;;;34.60;26.80;;;;;;5124543;27;19912;-53
2022/07/19 14:48:13;;;;;;;;;;;34.70;25.00;;;;;;5125145;27;19912;-52
2022/07/19 14:50:53;;;;;;;;;;;34.80;24.80;;;;;;5125365;27;19915;-52
2022/07/19 14:53:33;;;;;;;;;;;34.80;24.00;;;;;;5088292;27;20419;-53
2022/07/19 14:56:12;;;;;;;;;;;34.90;24.20;;;;;;5124812;27;20392;-53
2022/07/19 14:58:52;;;;;;;;;;;34.90;24.00;;;;;;5125110;27;19912;-53
2022/07/19 15:01:32;;;;;;;;;;;34.90;24.80;;;;;;5125384;27;19916;-55
2022/07/19 15:04:12;;;;;;;;;;;35.00;24.30;;;;;;5105696;27;19912;-54
2022/07/19 15:06:52;;;;;;;;;;;35.00;24.10;;;;;;5124829;27;19912;-53
2022/07/19 15:09:32;;;;;;;;;;;35.10;24.90;;;;;;5125041;27;19934;-54
2022/07/19 15:12:11;;;;;;;;;;;35.10;23.50;;;;;;5120119;27;19912;-54
2022/07/19 15:14:51;;;;;;;;;;;35.00;23.40;;;;;;5084939;28;19913;-54
2022/07/19 15:17:31;;;;;;;;;;;35.10;23.10;;;;;;5124492;27;19916;-54
2022/07/19 15:20:11;;;;;;;;;;;35.10;23.90;;;;;;5125360;27;19911;-54
2022/07/19 15:22:52;;;;;;;;;;;35.20;23.80;;;;;;5094050;27;20140;-53
2022/07/19 15:25:32;;;;;;;;;;;35.20;23.70;;;;;;5125082;27;19911;-54
2022/07/19 15:28:12;;;;;;;;;;;35.20;23.10;;;;;;5124805;27;20199;-54
2022/07/19 15:30:52;;;;;;;;;;;35.00;23.60;;;;;;5125733;27;19912;-54
2022/07/19 15:33:32;;;;;;;;;;;35.00;24.00;;;;;;5124945;27;19912;-54
2022/07/19 15:36:11;;;;;;;;;;;35.20;24.20;;;;;;5124617;27;20398;-52
2022/07/19 15:38:51;;;;;;;;;;;36.00;23.00;;;;;;5104804;27;20206;-54
2022/07/19 15:41:31;;;;;;;;;;;37.60;22.40;;;;;;5125097;27;19915;-54